createdAt,value
2023-04-07T00:04:53.780Z,3.207
2023-04-07T00:20:36.328Z,3.206
2023-04-07T00:36:18.841Z,3.207
2023-04-07T00:52:01.495Z,3.209
2023-04-07T01:07:44.468Z,3.206
2023-04-07T01:23:26.732Z,3.207
2023-04-07T01:39:09.690Z,3.206
2023-04-07T01:54:52.772Z,3.206
2023-04-07T02:10:35.192Z,3.206
2023-04-07T02:26:17.854Z,3.206
2023-04-07T02:42:00.206Z,3.206
2023-04-07T02:57:42.853Z,3.206
2023-04-07T03:13:25.953Z,3.205
2023-04-07T03:29:08.410Z,3.206
2023-04-07T03:44:50.844Z,3.205
2023-04-07T04:00:33.915Z,3.206
2023-04-07T04:16:16.310Z,3.205
2023-04-07T04:31:59.177Z,3.205
2023-04-07T04:47:41.592Z,3.205
2023-04-07T05:03:24.716Z,3.205
2023-04-07T05:19:07.401Z,3.205
2023-04-07T05:34:50.294Z,3.206
2023-04-07T05:50:32.698Z,3.212
2023-04-07T06:06:15.373Z,3.216
2023-04-07T06:21:57.881Z,3.218
2023-04-07T06:22:45.311Z,3.214
2023-04-07T06:54:10.495Z,3.235
2023-04-07T07:09:53.062Z,3.252
2023-04-07T07:25:35.512Z,3.268
2023-04-07T07:41:17.854Z,3.294
2023-04-07T07:57:00.813Z,3.271
2023-04-07T08:12:43.856Z,3.26
2023-04-07T08:28:26.054Z,3.253
2023-04-07T08:44:09.146Z,3.426
2023-04-07T09:15:34.058Z,3.359
2023-04-07T09:31:16.269Z,3.343
2023-04-07T09:46:58.495Z,3.33
2023-04-07T10:02:41.469Z,3.306
2023-04-07T10:18:24.222Z,3.296
2023-04-07T10:34:07.311Z,3.288
2023-04-07T10:49:49.616Z,3.279
2023-04-07T11:05:32.198Z,3.272
2023-04-07T11:21:15.218Z,3.267
2023-04-07T11:36:57.683Z,3.261
2023-04-07T11:52:40.229Z,3.257
2023-04-07T12:24:04.907Z,3.265
2023-04-07T12:39:47.393Z,3.26
2023-04-07T12:55:29.967Z,3.256
2023-04-07T13:26:56.124Z,3.288
2023-04-07T13:42:38.282Z,3.328
2023-04-07T13:58:21.142Z,3.3
2023-04-07T14:14:03.466Z,3.29
2023-04-07T14:29:52.749Z,3.282
2023-04-07T14:45:28.752Z,3.276
2023-04-07T15:01:11.806Z,3.268
2023-04-07T15:16:54.471Z,3.264
2023-04-07T15:32:36.800Z,3.26
2023-04-07T15:48:19.184Z,3.254
2023-04-07T16:04:02.131Z,3.252
2023-04-07T16:19:44.808Z,3.25
2023-04-07T16:35:27.295Z,3.245
2023-04-07T16:51:09.608Z,3.242
2023-04-07T17:06:52.618Z,3.241
2023-04-07T17:22:35.077Z,3.239
2023-04-07T17:38:18.153Z,3.239
2023-04-07T17:54:01.190Z,3.236
2023-04-07T18:09:43.693Z,3.234
2023-04-07T18:25:26.621Z,3.234
2023-04-07T18:41:09.116Z,3.232
2023-04-07T18:56:51.857Z,3.231
2023-04-07T19:12:34.679Z,3.231
2023-04-07T19:43:59.932Z,3.228
2023-04-07T19:59:42.699Z,3.228
2023-04-07T20:15:25.427Z,3.228
2023-04-07T20:31:08.146Z,3.227
2023-04-07T20:46:50.459Z,3.227
2023-04-07T21:02:33.453Z,3.227
2023-04-07T21:18:16.101Z,3.227
2023-04-07T21:33:58.366Z,3.225
2023-04-07T22:05:23.151Z,3.225
2023-04-07T22:21:06.224Z,3.225
2023-04-07T22:36:48.838Z,3.225
2023-04-07T23:08:13.640Z,3.225
2023-04-07T23:23:56.408Z,3.227
2023-04-07T23:39:38.902Z,3.225
2023-04-07T23:55:21.969Z,3.229
